Time;durP1;ratioP1;P1;durP2;ratioP2;P2;SDS_P1;SDS_P2;PMS_P1;PMS_P2;Temp;Humidity;BMP_temperature;BMP_pressure;BME280_temperature;BME280_humidity;BME280_pressure;Samples;Min_cycle;Max_cycle;Signal;HPM_P1;HPM_P2
2022/07/23 00:09:09;;;;;;;0.77;0.50;;;20.10;99.90;;;;;;6684533;88;20218;-79
2022/07/23 00:19:09;;;;;;;1.33;1.00;;;20.10;99.90;;;;;;6691048;88;20323;-80
2022/07/23 00:29:10;;;;;;;1.50;0.90;;;20.20;99.90;;;;;;6701791;88;20188;-79
2022/07/23 00:39:10;;;;;;;1.58;1.05;;;20.20;99.90;;;;;;6687775;88;20241;-78
2022/07/23 00:49:11;;;;;;;1.20;0.73;;;20.00;99.90;;;;;;6693903;88;20424;-76
2022/07/23 00:59:12;;;;;;;1.23;0.90;;;20.00;99.90;;;;;;6685646;88;20706;-77
2022/07/23 01:09:13;;;;;;;0.93;0.77;;;19.80;99.90;;;;;;6677311;88;20184;-77
2022/07/23 01:19:14;;;;;;;2.12;1.48;;;19.80;99.90;;;;;;6678165;88;20209;-77
2022/07/23 01:29:15;;;;;;;1.33;1.00;;;19.70;99.90;;;;;;6693276;88;20202;-76
2022/07/23 01:39:16;;;;;;;1.75;1.10;;;19.50;99.90;;;;;;6684032;88;20224;-77
2022/07/23 01:49:16;;;;;;;2.05;1.50;;;19.50;99.90;;;;;;6683897;88;20198;-77
2022/07/23 01:59:39;;;;;;;2.05;1.33;;;19.40;99.90;;;;;;6678985;77;20176;-79
2022/07/23 02:09:39;;;;;;;1.23;0.77;;;19.30;99.90;;;;;;6656917;89;20196;-79
2022/07/23 02:19:40;;;;;;;1.55;1.10;;;19.20;99.90;;;;;;6635660;89;20695;-78
2022/07/23 02:29:40;;;;;;;1.37;0.90;;;19.40;99.90;;;;;;6639206;89;20216;-79
2022/07/23 02:39:41;;;;;;;2.97;2.22;;;19.00;99.90;;;;;;6640041;89;20215;-79
2022/07/23 02:49:41;;;;;;;0.93;0.83;;;18.90;99.90;;;;;;6638900;89;20241;-78
2022/07/23 02:59:42;;;;;;;1.23;0.98;;;18.70;99.90;;;;;;6634463;89;20547;-78
2022/07/23 03:09:42;;;;;;;0.77;0.77;;;18.50;99.90;;;;;;6639856;89;20260;-79
2022/07/23 03:19:43;;;;;;;1.25;0.90;;;18.30;99.90;;;;;;6636626;89;20814;-78
2022/07/23 03:29:43;;;;;;;1.25;0.80;;;18.10;99.90;;;;;;6640944;89;20185;-79
2022/07/23 03:39:44;;;;;;;0.75;0.60;;;18.00;99.90;;;;;;6638681;89;20294;-79
2022/07/23 03:49:45;;;;;;;0.62;0.50;;;17.70;99.90;;;;;;6638540;89;20192;-79
2022/07/23 03:59:45;;;;;;;2.03;1.12;;;17.70;99.90;;;;;;6639232;89;20204;-79
2022/07/23 04:09:46;;;;;;;0.68;0.60;;;17.50;99.90;;;;;;6635080;89;20220;-80
2022/07/23 04:19:46;;;;;;;0.85;0.68;;;17.40;99.90;;;;;;6638345;89;20262;-78
2022/07/23 04:29:47;;;;;;;1.80;0.62;;;17.30;99.90;;;;;;6637495;89;20218;-78
2022/07/23 04:39:47;;;;;;;0.35;0.25;;;17.30;99.90;;;;;;6638924;89;20212;-78
2022/07/23 04:49:47;;;;;;;1.90;1.40;;;17.30;99.90;;;;;;6634816;89;20220;-79
2022/07/23 04:59:48;;;;;;;0.60;0.47;;;17.30;99.90;;;;;;6637218;89;20199;-78
2022/07/23 05:09:49;;;;;;;0.52;0.40;;;17.20;99.90;;;;;;6637008;89;20282;-79
2022/07/23 05:19:49;;;;;;;1.42;1.17;;;17.30;99.90;;;;;;6637551;89;20200;-78
2022/07/23 05:29:50;;;;;;;1.30;0.95;;;17.50;99.90;;;;;;6637987;89;20658;-79
2022/07/23 05:39:51;;;;;;;1.20;0.98;;;17.90;99.90;;;;;;6639073;89;20185;-79
2022/07/23 05:49:51;;;;;;;1.17;0.98;;;18.00;99.90;;;;;;6638825;89;20686;-78
2022/07/23 05:59:52;;;;;;;2.72;1.08;;;18.30;99.90;;;;;;6640491;89;20261;-78
2022/07/23 06:09:52;;;;;;;1.77;1.10;;;18.30;99.90;;;;;;6640764;89;20381;-80
2022/07/23 06:19:54;;;;;;;1.40;0.88;;;18.70;99.90;;;;;;6641309;89;20239;-79
2022/07/23 06:29:54;;;;;;;1.55;1.20;;;19.10;99.90;;;;;;6639606;89;20220;-79
2022/07/23 06:39:55;;;;;;;1.60;1.15;;;18.80;99.90;;;;;;6644785;89;20225;-79
2022/07/23 06:49:56;;;;;;;1.20;0.80;;;18.90;99.90;;;;;;6647599;89;20215;-81
2022/07/23 06:59:57;;;;;;;0.80;0.70;;;19.50;99.90;;;;;;6644998;89;20201;-80
2022/07/23 07:09:57;;;;;;;0.95;0.75;;;20.00;99.90;;;;;;6648972;89;20389;-81
2022/07/23 07:19:58;;;;;;;1.00;0.62;;;20.50;99.90;;;;;;6635132;89;20192;-77
2022/07/23 07:29:58;;;;;;;0.98;0.70;;;22.00;99.90;;;;;;6643889;89;20212;-80
2022/07/23 07:39:59;;;;;;;0.65;0.52;;;22.70;99.90;;;;;;6643475;89;20196;-79
2022/07/23 07:50:00;;;;;;;1.37;0.70;;;23.20;99.90;;;;;;6643343;89;20295;-80
2022/07/23 08:00:01;;;;;;;1.12;0.52;;;23.70;99.90;;;;;;6648523;89;20274;-78
2022/07/23 08:10:02;;;;;;;0.88;0.60;;;24.10;99.90;;;;;;6657490;89;20295;-78
2022/07/23 08:20:05;;;;;;;1.10;0.77;;;24.50;99.90;;;;;;6656308;89;20280;-78
2022/07/23 08:30:06;;;;;;;1.10;0.80;;;25.00;99.90;;;;;;6651473;89;20208;-78
2022/07/23 08:40:07;;;;;;;1.27;0.68;;;25.00;99.90;;;;;;6652986;89;20240;-78
2022/07/23 08:50:08;;;;;;;1.20;0.80;;;25.40;99.90;;;;;;6651530;89;20283;-77
2022/07/23 09:00:09;;;;;;;1.17;0.80;;;25.60;99.90;;;;;;6649554;89;20813;-77
2022/07/23 09:10:11;;;;;;;1.23;0.73;;;26.10;99.60;;;;;;6649955;89;20188;-79
2022/07/23 09:20:16;;;;;;;0.80;0.60;;;26.60;98.80;;;;;;6657384;89;20232;-78
2022/07/23 09:30:17;;;;;;;1.55;1.00;;;26.70;97.60;;;;;;6655393;89;20246;-78
2022/07/23 09:40:17;;;;;;;1.12;0.70;;;27.50;96.80;;;;;;6651789;89;21944;-78
2022/07/23 09:50:20;;;;;;;1.40;1.03;;;28.00;95.50;;;;;;6660534;89;20273;-79
2022/07/23 10:00:20;;;;;;;1.12;0.82;;;28.40;94.40;;;;;;6665300;89;20590;-79
2022/07/23 10:10:24;;;;;;;1.07;0.80;;;28.80;94.10;;;;;;6670513;89;20200;-80
2022/07/23 10:20:25;;;;;;;1.48;0.90;;;29.10;92.60;;;;;;6665676;89;20226;-79
2022/07/23 10:30:57;;;;;;;1.40;1.05;;;30.10;91.30;;;;;;6663604;89;20323;-80
2022/07/23 10:41:00;;;;;;;1.08;0.90;;;30.70;89.40;;;;;;6631558;89;20216;-80
2022/07/23 10:51:13;;;;;;;1.08;0.77;;;30.10;88.30;;;;;;6630552;89;20279;-78
2022/07/23 11:01:37;;;;;;;1.00;0.70;;;30.60;87.10;;;;;;6626978;89;20341;-79
2022/07/23 11:11:40;;;;;;;1.48;1.08;;;31.00;85.00;;;;;;6630156;89;20195;-79
2022/07/23 11:21:41;;;;;;;0.82;0.68;;;31.30;84.20;;;;;;6630814;89;20202;-80
2022/07/23 11:31:55;;;;;;;0.90;0.60;;;31.70;83.70;;;;;;6641498;89;20234;-80
2022/07/23 11:41:57;;;;;;;1.27;0.80;;;32.00;79.20;;;;;;6645522;89;20622;-79
2022/07/23 11:52:15;;;;;;;1.30;0.80;;;32.00;80.90;;;;;;6645003;89;20204;-79
2022/07/23 12:02:15;;;;;;;1.55;1.08;;;32.40;79.90;;;;;;6641138;89;20242;-76
2022/07/23 12:12:17;;;;;;;1.17;0.70;;;32.80;77.40;;;;;;6648106;89;20288;-81
2022/07/23 12:22:18;;;;;;;1.15;0.88;;;32.50;76.90;;;;;;6648095;89;20484;-79
2022/07/23 12:32:27;;;;;;;0.88;0.70;;;32.20;75.70;;;;;;6648342;89;20235;-79
2022/07/23 12:42:40;;;;;;;1.62;1.20;;;32.50;74.90;;;;;;6646629;89;20665;-79
2022/07/23 12:52:41;;;;;;;1.15;0.85;;;33.30;75.80;;;;;;6646835;89;20184;-80
2022/07/23 13:02:47;;;;;;;1.00;0.70;;;33.20;72.10;;;;;;6648593;89;20184;-79
2022/07/23 13:12:48;;;;;;;0.88;0.57;;;31.90;71.80;;;;;;6647765;89;20218;-79
2022/07/23 13:22:48;;;;;;;1.00;0.60;;;31.60;69.40;;;;;;6647375;89;20708;-78
2022/07/23 13:32:49;;;;;;;1.17;0.62;;;32.00;70.60;;;;;;6641611;89;20232;-78
2022/07/23 13:42:49;;;;;;;1.05;0.75;;;32.00;70.50;;;;;;6645391;89;20200;-79
2022/07/23 14:02:54;;;;;;;0.98;0.75;;;32.60;70.40;;;;;;6680018;88;20745;-77
2022/07/23 14:12:56;;;;;;;;;;;32.30;70.30;;;;;;6662513;89;20339;-78
2022/07/23 14:23:00;;;;;;;;;;;32.40;71.10;;;;;;6660679;89;20069;-78
2022/07/23 14:33:00;;;;;;;1.00;0.57;;;32.70;71.80;;;;;;6666231;89;20074;-77
2022/07/23 14:43:01;;;;;;;0.90;0.50;;;33.00;71.40;;;;;;6676789;89;20240;-78
2022/07/23 14:53:01;;;;;;;0.80;0.57;;;32.60;70.70;;;;;;6675425;88;20211;-79
2022/07/23 15:03:02;;;;;;;1.58;1.08;;;32.00;70.10;;;;;;6682436;89;20282;-78
2022/07/23 15:13:03;;;;;;;0.70;0.50;;;31.40;70.70;;;;;;6676218;89;20259;-78
2022/07/23 15:23:05;;;;;;;1.35;0.60;;;31.40;70.60;;;;;;6673290;89;20599;-78
2022/07/23 15:33:05;;;;;;;0.70;0.40;;;31.90;71.50;;;;;;6680294;89;20330;-78
2022/07/23 15:43:06;;;;;;;0.82;0.60;;;31.60;71.40;;;;;;6674203;88;20313;-79
2022/07/23 15:53:06;;;;;;;1.30;0.60;;;31.20;71.50;;;;;;6678669;88;20713;-77
2022/07/23 16:03:07;;;;;;;1.20;0.87;;;31.70;70.80;;;;;;6671206;88;20185;-77
2022/07/23 16:13:07;;;;;;;0.90;0.65;;;31.70;70.30;;;;;;6671914;88;20208;-77
2022/07/23 16:23:08;;;;;;;1.58;0.70;;;30.80;71.80;;;;;;6672950;88;20212;-77
2022/07/23 16:33:09;;;;;;;1.05;0.62;;;30.70;71.80;;;;;;6669225;88;20196;-78
2022/07/23 16:43:09;;;;;;;1.00;0.40;;;30.20;71.90;;;;;;6672444;89;20252;-77
2022/07/23 16:53:10;;;;;;;0.80;0.55;;;29.70;73.30;;;;;;6671033;88;21203;-78
2022/07/23 17:03:10;;;;;;;0.80;0.40;;;29.40;73.10;;;;;;6666756;88;20253;-77
2022/07/23 17:13:11;;;;;;;0.80;0.62;;;29.30;74.00;;;;;;6656654;89;20200;-77
2022/07/23 17:23:12;;;;;;;0.80;0.45;;;29.60;73.50;;;;;;6664654;88;20202;-78
2022/07/23 17:33:13;;;;;;;0.80;0.50;;;29.50;73.10;;;;;;6659112;88;20194;-77
2022/07/23 17:43:13;;;;;;;0.60;0.50;;;29.20;72.70;;;;;;6674880;88;20208;-78
2022/07/23 17:53:14;;;;;;;1.00;0.50;;;29.30;73.20;;;;;;6664301;88;20303;-78
2022/07/23 18:03:15;;;;;;;0.90;0.60;;;29.20;73.70;;;;;;6670357;88;20235;-78
2022/07/23 18:13:15;;;;;;;0.95;0.43;;;29.00;73.40;;;;;;6664403;89;20246;-77
2022/07/23 18:23:16;;;;;;;1.20;0.75;;;29.00;74.60;;;;;;6661146;89;20206;-78
2022/07/23 18:33:17;;;;;;;0.75;0.40;;;27.90;74.80;;;;;;6667904;88;20194;-78
2022/07/23 18:43:18;;;;;;;0.50;0.30;;;27.50;75.70;;;;;;6671991;88;20218;-79
2022/07/23 18:53:18;;;;;;;0.70;0.40;;;26.90;77.30;;;;;;6673742;89;20243;-78
2022/07/23 19:03:19;;;;;;;0.60;0.40;;;26.30;78.50;;;;;;6668645;89;21183;-77
2022/07/23 19:13:19;;;;;;;0.73;0.50;;;26.00;79.40;;;;;;6667598;89;20721;-77
2022/07/23 19:23:20;;;;;;;0.45;0.30;;;25.50;81.60;;;;;;6667863;89;20204;-78
2022/07/23 19:33:21;;;;;;;0.77;0.40;;;25.10;82.30;;;;;;6673803;88;20196;-78
2022/07/23 19:43:21;;;;;;;0.57;0.30;;;24.60;84.10;;;;;;6671366;88;20199;-79
2022/07/23 20:03:25;;;;;;;0.80;0.30;;;24.00;87.30;;;;;;6673356;89;20215;-79
2022/07/23 20:13:26;;;;;;;0.90;0.55;;;23.80;89.60;;;;;;6683871;88;20726;-79
2022/07/23 20:23:26;;;;;;;0.82;0.50;;;23.60;91.10;;;;;;6682610;88;20712;-79
2022/07/23 20:33:27;;;;;;;0.60;0.40;;;23.50;92.30;;;;;;6667548;89;20218;-78
2022/07/23 20:43:27;;;;;;;0.70;0.50;;;23.00;94.30;;;;;;6672352;89;20235;-79
2022/07/23 20:53:28;;;;;;;2.62;1.15;;;22.70;96.50;;;;;;6671792;89;20221;-78
2022/07/23 21:03:28;;;;;;;2.35;1.20;;;22.50;98.80;;;;;;6686280;88;20678;-79
2022/07/23 21:13:29;;;;;;;2.10;1.25;;;22.70;99.90;;;;;;6688231;88;20288;-78
2022/07/23 21:23:31;;;;;;;1.25;0.90;;;22.30;99.90;;;;;;6676245;88;20728;-79
2022/07/23 21:33:32;;;;;;;1.70;1.08;;;22.10;99.90;;;;;;6672591;89;20221;-79
2022/07/23 21:43:32;;;;;;;2.08;1.15;;;21.70;99.90;;;;;;6671816;89;20205;-79
2022/07/23 21:53:33;;;;;;;1.95;1.08;;;21.60;99.90;;;;;;6675832;89;20682;-80
2022/07/23 22:03:33;;;;;;;2.42;1.30;;;21.40;99.90;;;;;;6671543;89;20227;-80
2022/07/23 22:13:34;;;;;;;1.60;1.00;;;21.20;99.90;;;;;;6671531;89;20182;-78
2022/07/23 22:23:35;;;;;;;2.20;1.40;;;21.20;99.90;;;;;;6670823;89;20217;-77
2022/07/23 22:33:35;;;;;;;2.22;1.10;;;21.10;99.90;;;;;;6666190;89;20188;-78
2022/07/23 22:43:36;;;;;;;1.87;1.00;;;20.50;99.90;;;;;;6653644;89;20261;-78
2022/07/23 22:53:36;;;;;;;1.75;1.17;;;20.30;99.90;;;;;;6650223;89;20652;-78
2022/07/23 23:03:37;;;;;;;1.92;1.00;;;20.40;99.90;;;;;;6687040;89;20179;-78
2022/07/23 23:13:37;;;;;;;143.87;8.90;;;20.30;99.90;;;;;;6688118;88;20245;-79
2022/07/23 23:23:38;;;;;;;2.58;1.12;;;20.00;99.90;;;;;;6692182;88;20210;-78
2022/07/23 23:33:38;;;;;;;2.03;1.27;;;19.90;99.90;;;;;;6689283;88;20181;-79
2022/07/23 23:43:39;;;;;;;95.82;9.18;;;19.50;99.90;;;;;;6692834;88;20199;-79
2022/07/23 23:53:39;;;;;;;1.52;1.02;;;19.40;99.90;;;;;;6689733;88;20246;-78
